sensor_id;sensor_type;location;lat;lon;timestamp;P1;durP1;ratioP1;P2;durP2;ratioP2
1174;SDS011;576;48.418;10.074;2022-10-31T00:00:46;3.50;;;3.20;;
1174;SDS011;576;48.418;10.074;2022-10-31T00:03:15;6.00;;;4.20;;
1174;SDS011;576;48.418;10.074;2022-10-31T00:05:44;4.67;;;4.13;;
1174;SDS011;576;48.418;10.074;2022-10-31T00:08:13;3.37;;;3.17;;
1174;SDS011;576;48.418;10.074;2022-10-31T00:10:42;4.10;;;3.77;;
1174;SDS011;576;48.418;10.074;2022-10-31T00:13:12;4.67;;;4.20;;
1174;SDS011;576;48.418;10.074;2022-10-31T00:15:41;3.50;;;3.27;;
1174;SDS011;576;48.418;10.074;2022-10-31T00:18:10;3.63;;;3.43;;
1174;SDS011;576;48.418;10.074;2022-10-31T00:20:39;4.47;;;4.07;;
1174;SDS011;576;48.418;10.074;2022-10-31T00:23:07;4.30;;;3.90;;
1174;SDS011;576;48.418;10.074;2022-10-31T00:25:37;3.93;;;3.63;;
1174;SDS011;576;48.418;10.074;2022-10-31T00:28:07;3.83;;;3.53;;
1174;SDS011;576;48.418;10.074;2022-10-31T00:30:37;3.40;;;3.20;;
1174;SDS011;576;48.418;10.074;2022-10-31T00:33:05;4.50;;;4.10;;
1174;SDS011;576;48.418;10.074;2022-10-31T00:35:34;3.83;;;3.50;;
1174;SDS011;576;48.418;10.074;2022-10-31T00:38:03;4.07;;;3.70;;
1174;SDS011;576;48.418;10.074;2022-10-31T00:40:31;4.33;;;3.67;;
1174;SDS011;576;48.418;10.074;2022-10-31T00:42:59;3.93;;;3.63;;
1174;SDS011;576;48.418;10.074;2022-10-31T00:45:28;3.97;;;3.67;;
1174;SDS011;576;48.418;10.074;2022-10-31T00:47:56;4.33;;;3.93;;
1174;SDS011;576;48.418;10.074;2022-10-31T00:50:25;4.30;;;4.00;;
1174;SDS011;576;48.418;10.074;2022-10-31T00:52:55;3.90;;;3.60;;
1174;SDS011;576;48.418;10.074;2022-10-31T00:55:24;3.93;;;3.67;;
1174;SDS011;576;48.418;10.074;2022-10-31T00:57:52;3.93;;;3.63;;
1174;SDS011;576;48.418;10.074;2022-10-31T01:00:20;4.67;;;3.90;;
1174;SDS011;576;48.418;10.074;2022-10-31T01:02:49;3.17;;;2.97;;
1174;SDS011;576;48.418;10.074;2022-10-31T01:05:20;5.33;;;3.60;;
1174;SDS011;576;48.418;10.074;2022-10-31T01:07:48;4.10;;;3.70;;
1174;SDS011;576;48.418;10.074;2022-10-31T01:10:18;4.60;;;3.30;;
1174;SDS011;576;48.418;10.074;2022-10-31T01:12:46;3.73;;;3.53;;
1174;SDS011;576;48.418;10.074;2022-10-31T01:15:17;3.90;;;3.60;;
1174;SDS011;576;48.418;10.074;2022-10-31T01:17:47;3.93;;;3.63;;
1174;SDS011;576;48.418;10.074;2022-10-31T01:20:16;4.30;;;3.90;;
1174;SDS011;576;48.418;10.074;2022-10-31T01:22:44;4.40;;;4.00;;
1174;SDS011;576;48.418;10.074;2022-10-31T01:25:13;4.83;;;4.40;;
1174;SDS011;576;48.418;10.074;2022-10-31T01:27:42;3.97;;;3.67;;
1174;SDS011;576;48.418;10.074;2022-10-31T01:30:11;3.63;;;3.33;;
1174;SDS011;576;48.418;10.074;2022-10-31T01:32:39;3.70;;;3.40;;
1174;SDS011;576;48.418;10.074;2022-10-31T01:35:07;3.73;;;3.50;;
1174;SDS011;576;48.418;10.074;2022-10-31T01:37:35;4.30;;;4.00;;
1174;SDS011;576;48.418;10.074;2022-10-31T01:40:04;3.70;;;3.40;;
1174;SDS011;576;48.418;10.074;2022-10-31T01:42:33;3.47;;;3.27;;
1174;SDS011;576;48.418;10.074;2022-10-31T01:45:05;3.67;;;3.37;;
1174;SDS011;576;48.418;10.074;2022-10-31T01:47:38;4.60;;;4.20;;
1174;SDS011;576;48.418;10.074;2022-10-31T01:50:12;3.70;;;3.50;;
1174;SDS011;576;48.418;10.074;2022-10-31T01:52:54;3.57;;;3.30;;
1174;SDS011;576;48.418;10.074;2022-10-31T01:55:23;4.40;;;4.10;;
1174;SDS011;576;48.418;10.074;2022-10-31T01:57:57;3.67;;;3.37;;
1174;SDS011;576;48.418;10.074;2022-10-31T02:00:31;3.63;;;3.43;;
1174;SDS011;576;48.418;10.074;2022-10-31T02:02:59;4.33;;;3.93;;
1174;SDS011;576;48.418;10.074;2022-10-31T02:05:28;4.13;;;3.83;;
1174;SDS011;576;48.418;10.074;2022-10-31T02:07:58;3.83;;;3.53;;
1174;SDS011;576;48.418;10.074;2022-10-31T02:10:30;3.57;;;3.27;;
1174;SDS011;576;48.418;10.074;2022-10-31T02:13:01;4.00;;;3.70;;
1174;SDS011;576;48.418;10.074;2022-10-31T02:15:36;5.00;;;4.20;;
1174;SDS011;576;48.418;10.074;2022-10-31T02:18:05;4.37;;;3.97;;
1174;SDS011;576;48.418;10.074;2022-10-31T02:20:37;3.87;;;3.57;;
1174;SDS011;576;48.418;10.074;2022-10-31T02:23:21;4.10;;;3.80;;
1174;SDS011;576;48.418;10.074;2022-10-31T02:26:34;3.40;;;3.20;;
1174;SDS011;576;48.418;10.074;2022-10-31T02:29:37;3.70;;;3.47;;
1174;SDS011;576;48.418;10.074;2022-10-31T02:32:40;4.80;;;4.40;;
1174;SDS011;576;48.418;10.074;2022-10-31T02:35:22;3.80;;;3.37;;
1174;SDS011;576;48.418;10.074;2022-10-31T02:38:06;3.47;;;3.27;;
1174;SDS011;576;48.418;10.074;2022-10-31T02:40:44;3.17;;;2.97;;
1174;SDS011;576;48.418;10.074;2022-10-31T02:43:26;3.20;;;3.00;;
1174;SDS011;576;48.418;10.074;2022-10-31T02:46:01;3.70;;;3.50;;
1174;SDS011;576;48.418;10.074;2022-10-31T02:48:37;3.40;;;3.13;;
1174;SDS011;576;48.418;10.074;2022-10-31T02:51:09;3.93;;;3.63;;
1174;SDS011;576;48.418;10.074;2022-10-31T02:53:38;4.17;;;3.83;;
1174;SDS011;576;48.418;10.074;2022-10-31T02:56:09;3.60;;;3.40;;
1174;SDS011;576;48.418;10.074;2022-10-31T02:58:41;3.60;;;3.40;;
1174;SDS011;576;48.418;10.074;2022-10-31T03:01:26;3.80;;;3.40;;
1174;SDS011;576;48.418;10.074;2022-10-31T03:04:10;3.73;;;3.53;;
1174;SDS011;576;48.418;10.074;2022-10-31T03:06:57;3.80;;;3.50;;
1174;SDS011;576;48.418;10.074;2022-10-31T03:09:32;3.87;;;3.57;;
1174;SDS011;576;48.418;10.074;2022-10-31T03:12:06;3.17;;;2.97;;
1174;SDS011;576;48.418;10.074;2022-10-31T03:14:39;3.10;;;2.90;;
1174;SDS011;576;48.418;10.074;2022-10-31T03:17:12;3.80;;;3.50;;
1174;SDS011;576;48.418;10.074;2022-10-31T03:19:47;3.93;;;3.63;;
1174;SDS011;576;48.418;10.074;2022-10-31T03:22:20;3.23;;;3.00;;
1174;SDS011;576;48.418;10.074;2022-10-31T03:24:51;4.70;;;3.33;;
1174;SDS011;576;48.418;10.074;2022-10-31T03:27:21;3.30;;;3.10;;
1174;SDS011;576;48.418;10.074;2022-10-31T03:29:52;3.60;;;3.40;;
1174;SDS011;576;48.418;10.074;2022-10-31T03:32:23;3.97;;;3.67;;
1174;SDS011;576;48.418;10.074;2022-10-31T03:34:58;3.53;;;3.23;;
1174;SDS011;576;48.418;10.074;2022-10-31T03:37:28;3.23;;;3.03;;
1174;SDS011;576;48.418;10.074;2022-10-31T03:40:01;3.80;;;3.50;;
1174;SDS011;576;48.418;10.074;2022-10-31T03:42:33;3.30;;;3.07;;
1174;SDS011;576;48.418;10.074;2022-10-31T03:45:05;3.60;;;3.30;;
1174;SDS011;576;48.418;10.074;2022-10-31T03:47:39;3.20;;;3.00;;
1174;SDS011;576;48.418;10.074;2022-10-31T03:50:12;3.03;;;2.83;;
1174;SDS011;576;48.418;10.074;2022-10-31T03:52:45;3.10;;;2.90;;
1174;SDS011;576;48.418;10.074;2022-10-31T03:55:18;3.77;;;3.47;;
1174;SDS011;576;48.418;10.074;2022-10-31T03:57:52;3.67;;;3.40;;
1174;SDS011;576;48.418;10.074;2022-10-31T04:00:26;3.53;;;3.30;;
1174;SDS011;576;48.418;10.074;2022-10-31T04:02:55;3.33;;;3.13;;
1174;SDS011;576;48.418;10.074;2022-10-31T04:05:32;3.47;;;3.23;;
1174;SDS011;576;48.418;10.074;2022-10-31T04:08:03;3.30;;;3.10;;
1174;SDS011;576;48.418;10.074;2022-10-31T04:10:35;3.20;;;3.00;;
1174;SDS011;576;48.418;10.074;2022-10-31T04:13:06;3.00;;;2.80;;
1174;SDS011;576;48.418;10.074;2022-10-31T04:15:43;3.40;;;3.17;;
1174;SDS011;576;48.418;10.074;2022-10-31T04:18:14;3.10;;;2.90;;
1174;SDS011;576;48.418;10.074;2022-10-31T04:20:43;3.03;;;2.83;;
1174;SDS011;576;48.418;10.074;2022-10-31T04:23:13;3.53;;;3.23;;
1174;SDS011;576;48.418;10.074;2022-10-31T04:25:47;3.40;;;3.20;;
1174;SDS011;576;48.418;10.074;2022-10-31T04:28:16;3.03;;;2.83;;
1174;SDS011;576;48.418;10.074;2022-10-31T04:30:50;3.50;;;3.30;;
1174;SDS011;576;48.418;10.074;2022-10-31T04:33:18;3.23;;;3.03;;
1174;SDS011;576;48.418;10.074;2022-10-31T04:35:48;3.70;;;3.40;;
1174;SDS011;576;48.418;10.074;2022-10-31T04:38:17;3.57;;;3.20;;
1174;SDS011;576;48.418;10.074;2022-10-31T04:40:45;3.87;;;3.27;;
1174;SDS011;576;48.418;10.074;2022-10-31T04:43:33;3.17;;;2.90;;
1174;SDS011;576;48.418;10.074;2022-10-31T04:46:01;3.50;;;3.20;;
1174;SDS011;576;48.418;10.074;2022-10-31T04:48:30;3.07;;;2.87;;
1174;SDS011;576;48.418;10.074;2022-10-31T04:51:00;2.93;;;2.73;;
1174;SDS011;576;48.418;10.074;2022-10-31T04:53:29;3.90;;;3.17;;
1174;SDS011;576;48.418;10.074;2022-10-31T04:56:32;3.50;;;3.20;;
1174;SDS011;576;48.418;10.074;2022-10-31T04:59:07;3.83;;;3.53;;
1174;SDS011;576;48.418;10.074;2022-10-31T05:01:46;3.43;;;3.23;;
1174;SDS011;576;48.418;10.074;2022-10-31T05:04:19;3.43;;;3.23;;
1174;SDS011;576;48.418;10.074;2022-10-31T05:06:48;2.83;;;2.63;;
1174;SDS011;576;48.418;10.074;2022-10-31T05:09:17;3.37;;;3.17;;
1174;SDS011;576;48.418;10.074;2022-10-31T05:11:45;3.40;;;3.10;;
1174;SDS011;576;48.418;10.074;2022-10-31T05:14:40;3.40;;;3.10;;
1174;SDS011;576;48.418;10.074;2022-10-31T05:17:32;3.37;;;3.13;;
1174;SDS011;576;48.418;10.074;2022-10-31T05:20:21;3.13;;;2.83;;
1174;SDS011;576;48.418;10.074;2022-10-31T05:23:10;4.00;;;2.73;;
1174;SDS011;576;48.418;10.074;2022-10-31T05:25:40;3.63;;;3.33;;
1174;SDS011;576;48.418;10.074;2022-10-31T05:28:08;3.00;;;2.80;;
1174;SDS011;576;48.418;10.074;2022-10-31T05:30:37;2.93;;;2.73;;
1174;SDS011;576;48.418;10.074;2022-10-31T05:33:09;3.47;;;3.27;;
1174;SDS011;576;48.418;10.074;2022-10-31T05:36:03;2.80;;;2.60;;
1174;SDS011;576;48.418;10.074;2022-10-31T05:38:56;3.27;;;3.07;;
1174;SDS011;576;48.418;10.074;2022-10-31T05:41:33;3.40;;;3.20;;
1174;SDS011;576;48.418;10.074;2022-10-31T05:44:08;2.97;;;2.80;;
1174;SDS011;576;48.418;10.074;2022-10-31T05:46:49;3.50;;;3.30;;
1174;SDS011;576;48.418;10.074;2022-10-31T05:49:35;3.47;;;3.27;;
1174;SDS011;576;48.418;10.074;2022-10-31T05:52:23;2.73;;;2.53;;
1174;SDS011;576;48.418;10.074;2022-10-31T05:55:02;2.93;;;2.73;;
1174;SDS011;576;48.418;10.074;2022-10-31T05:57:31;3.03;;;2.83;;
1174;SDS011;576;48.418;10.074;2022-10-31T06:00:00;3.07;;;2.87;;
1174;SDS011;576;48.418;10.074;2022-10-31T06:02:33;3.30;;;3.10;;
1174;SDS011;576;48.418;10.074;2022-10-31T06:05:34;3.60;;;3.40;;
1174;SDS011;576;48.418;10.074;2022-10-31T06:08:02;3.70;;;3.40;;
1174;SDS011;576;48.418;10.074;2022-10-31T06:10:32;3.20;;;3.00;;
1174;SDS011;576;48.418;10.074;2022-10-31T06:13:00;3.03;;;2.87;;
1174;SDS011;576;48.418;10.074;2022-10-31T06:15:43;3.03;;;2.83;;
1174;SDS011;576;48.418;10.074;2022-10-31T06:18:12;2.93;;;2.77;;
1174;SDS011;576;48.418;10.074;2022-10-31T06:20:46;2.87;;;2.67;;
1174;SDS011;576;48.418;10.074;2022-10-31T06:23:14;3.10;;;2.90;;
1174;SDS011;576;48.418;10.074;2022-10-31T06:25:49;2.80;;;2.60;;
1174;SDS011;576;48.418;10.074;2022-10-31T06:28:17;3.27;;;3.07;;
1174;SDS011;576;48.418;10.074;2022-10-31T06:30:52;3.13;;;2.93;;
1174;SDS011;576;48.418;10.074;2022-10-31T06:33:21;3.57;;;3.27;;
1174;SDS011;576;48.418;10.074;2022-10-31T06:35:59;3.30;;;3.10;;
1174;SDS011;576;48.418;10.074;2022-10-31T06:38:27;2.90;;;2.70;;
1174;SDS011;576;48.418;10.074;2022-10-31T06:41:01;3.10;;;2.90;;
1174;SDS011;576;48.418;10.074;2022-10-31T06:43:38;3.00;;;2.80;;
1174;SDS011;576;48.418;10.074;2022-10-31T06:46:25;2.87;;;2.67;;
1174;SDS011;576;48.418;10.074;2022-10-31T06:49:11;3.00;;;2.80;;
1174;SDS011;576;48.418;10.074;2022-10-31T06:51:46;3.10;;;2.90;;
1174;SDS011;576;48.418;10.074;2022-10-31T06:54:15;3.27;;;2.97;;
1174;SDS011;576;48.418;10.074;2022-10-31T06:56:46;3.00;;;2.80;;
1174;SDS011;576;48.418;10.074;2022-10-31T06:59:15;2.60;;;2.40;;
1174;SDS011;576;48.418;10.074;2022-10-31T07:02:02;3.17;;;2.97;;
1174;SDS011;576;48.418;10.074;2022-10-31T07:04:32;3.33;;;3.03;;
1174;SDS011;576;48.418;10.074;2022-10-31T07:07:00;2.80;;;2.60;;
1174;SDS011;576;48.418;10.074;2022-10-31T07:09:29;2.87;;;2.67;;
1174;SDS011;576;48.418;10.074;2022-10-31T07:12:02;3.07;;;2.87;;
1174;SDS011;576;48.418;10.074;2022-10-31T07:14:35;3.03;;;2.83;;
1174;SDS011;576;48.418;10.074;2022-10-31T07:17:03;3.20;;;3.00;;
1174;SDS011;576;48.418;10.074;2022-10-31T07:19:35;3.03;;;2.83;;
1174;SDS011;576;48.418;10.074;2022-10-31T07:22:03;2.87;;;2.67;;
1174;SDS011;576;48.418;10.074;2022-10-31T07:24:32;2.87;;;2.67;;
1174;SDS011;576;48.418;10.074;2022-10-31T07:27:17;3.00;;;2.80;;
1174;SDS011;576;48.418;10.074;2022-10-31T07:29:47;3.27;;;3.07;;
1174;SDS011;576;48.418;10.074;2022-10-31T07:32:15;3.60;;;3.30;;
1174;SDS011;576;48.418;10.074;2022-10-31T07:34:52;3.70;;;2.70;;
1174;SDS011;576;48.418;10.074;2022-10-31T07:37:22;3.20;;;3.00;;
1174;SDS011;576;48.418;10.074;2022-10-31T07:39:51;3.17;;;2.90;;
1174;SDS011;576;48.418;10.074;2022-10-31T07:42:20;2.93;;;2.73;;
1174;SDS011;576;48.418;10.074;2022-10-31T07:44:49;3.20;;;2.97;;
1174;SDS011;576;48.418;10.074;2022-10-31T07:47:51;3.03;;;2.83;;
1174;SDS011;576;48.418;10.074;2022-10-31T07:50:39;3.20;;;2.83;;
1174;SDS011;576;48.418;10.074;2022-10-31T07:53:30;4.10;;;3.03;;
1174;SDS011;576;48.418;10.074;2022-10-31T07:56:08;2.87;;;2.67;;
1174;SDS011;576;48.418;10.074;2022-10-31T07:58:38;4.03;;;3.43;;
1174;SDS011;576;48.418;10.074;2022-10-31T08:01:06;3.63;;;3.33;;
1174;SDS011;576;48.418;10.074;2022-10-31T08:03:44;3.53;;;3.33;;
1174;SDS011;576;48.418;10.074;2022-10-31T08:06:30;3.30;;;3.10;;
1174;SDS011;576;48.418;10.074;2022-10-31T08:09:17;3.00;;;2.80;;
1174;SDS011;576;48.418;10.074;2022-10-31T08:11:46;3.27;;;2.97;;
1174;SDS011;576;48.418;10.074;2022-10-31T08:14:16;3.27;;;3.07;;
1174;SDS011;576;48.418;10.074;2022-10-31T08:16:45;3.27;;;3.07;;
1174;SDS011;576;48.418;10.074;2022-10-31T08:19:13;6.90;;;3.13;;
1174;SDS011;576;48.418;10.074;2022-10-31T08:21:42;7.37;;;3.20;;
1174;SDS011;576;48.418;10.074;2022-10-31T08:24:10;3.60;;;3.30;;
1174;SDS011;576;48.418;10.074;2022-10-31T08:26:39;3.00;;;2.80;;
1174;SDS011;576;48.418;10.074;2022-10-31T08:29:09;3.10;;;2.90;;
1174;SDS011;576;48.418;10.074;2022-10-31T08:31:40;3.17;;;2.80;;
1174;SDS011;576;48.418;10.074;2022-10-31T08:34:27;4.70;;;4.07;;
1174;SDS011;576;48.418;10.074;2022-10-31T08:37:13;2.67;;;2.40;;
1174;SDS011;576;48.418;10.074;2022-10-31T08:39:50;3.57;;;3.27;;
1174;SDS011;576;48.418;10.074;2022-10-31T08:42:20;3.20;;;3.00;;
1174;SDS011;576;48.418;10.074;2022-10-31T08:44:48;4.93;;;3.70;;
1174;SDS011;576;48.418;10.074;2022-10-31T08:47:21;3.23;;;2.90;;
1174;SDS011;576;48.418;10.074;2022-10-31T08:49:49;2.67;;;2.50;;
1174;SDS011;576;48.418;10.074;2022-10-31T08:52:17;3.10;;;2.90;;
1174;SDS011;576;48.418;10.074;2022-10-31T08:54:47;3.47;;;3.17;;
1174;SDS011;576;48.418;10.074;2022-10-31T08:57:53;3.50;;;3.20;;
1174;SDS011;576;48.418;10.074;2022-10-31T09:00:23;2.93;;;2.73;;
1174;SDS011;576;48.418;10.074;2022-10-31T09:03:04;5.50;;;2.70;;
1174;SDS011;576;48.418;10.074;2022-10-31T09:05:33;3.17;;;2.97;;
1174;SDS011;576;48.418;10.074;2022-10-31T09:08:03;3.13;;;2.83;;
1174;SDS011;576;48.418;10.074;2022-10-31T09:10:41;3.50;;;3.30;;
1174;SDS011;576;48.418;10.074;2022-10-31T09:13:10;3.10;;;2.83;;
1174;SDS011;576;48.418;10.074;2022-10-31T09:15:58;3.00;;;2.80;;
1174;SDS011;576;48.418;10.074;2022-10-31T09:18:29;3.43;;;3.13;;
1174;SDS011;576;48.418;10.074;2022-10-31T09:20:58;3.60;;;3.30;;
1174;SDS011;576;48.418;10.074;2022-10-31T09:23:29;2.63;;;2.53;;
1174;SDS011;576;48.418;10.074;2022-10-31T09:26:01;3.20;;;3.00;;
1174;SDS011;576;48.418;10.074;2022-10-31T09:28:32;4.00;;;3.70;;
1174;SDS011;576;48.418;10.074;2022-10-31T09:31:08;4.77;;;4.27;;
1174;SDS011;576;48.418;10.074;2022-10-31T09:34:04;3.63;;;3.33;;
1174;SDS011;576;48.418;10.074;2022-10-31T09:36:35;4.40;;;4.00;;
1174;SDS011;576;48.418;10.074;2022-10-31T09:39:11;10.17;;;4.20;;
1174;SDS011;576;48.418;10.074;2022-10-31T09:41:49;5.33;;;4.10;;
1174;SDS011;576;48.418;10.074;2022-10-31T09:44:35;9.00;;;4.13;;
1174;SDS011;576;48.418;10.074;2022-10-31T09:47:24;5.23;;;4.57;;
1174;SDS011;576;48.418;10.074;2022-10-31T09:50:36;8.20;;;3.90;;
1174;SDS011;576;48.418;10.074;2022-10-31T09:53:36;5.70;;;3.83;;
1174;SDS011;576;48.418;10.074;2022-10-31T09:56:09;4.30;;;3.90;;
1174;SDS011;576;48.418;10.074;2022-10-31T09:58:42;4.45;;;4.05;;
1174;SDS011;576;48.418;10.074;2022-10-31T10:04:11;4.10;;;3.70;;
1174;SDS011;576;48.418;10.074;2022-10-31T10:07:16;5.53;;;4.73;;
1174;SDS011;576;48.418;10.074;2022-10-31T10:10:05;4.40;;;3.87;;
1174;SDS011;576;48.418;10.074;2022-10-31T10:12:58;6.23;;;3.87;;
1174;SDS011;576;48.418;10.074;2022-10-31T10:15:52;3.97;;;3.67;;
1174;SDS011;576;48.418;10.074;2022-10-31T10:18:31;3.50;;;3.30;;
1174;SDS011;576;48.418;10.074;2022-10-31T10:21:14;3.40;;;3.17;;
1174;SDS011;576;48.418;10.074;2022-10-31T10:23:55;5.07;;;4.53;;
1174;SDS011;576;48.418;10.074;2022-10-31T10:26:30;3.60;;;3.30;;
1174;SDS011;576;48.418;10.074;2022-10-31T10:29:08;4.20;;;3.60;;
1174;SDS011;576;48.418;10.074;2022-10-31T10:31:47;3.87;;;3.53;;
1174;SDS011;576;48.418;10.074;2022-10-31T10:34:21;6.03;;;3.90;;
1174;SDS011;576;48.418;10.074;2022-10-31T10:36:54;3.53;;;3.23;;
1174;SDS011;576;48.418;10.074;2022-10-31T10:39:29;4.00;;;3.57;;
1174;SDS011;576;48.418;10.074;2022-10-31T10:42:04;5.00;;;4.50;;
1174;SDS011;576;48.418;10.074;2022-10-31T10:44:55;9.90;;;7.70;;
1174;SDS011;576;48.418;10.074;2022-10-31T10:47:42;11.60;;;8.73;;
1174;SDS011;576;48.418;10.074;2022-10-31T10:50:13;9.13;;;7.90;;
1174;SDS011;576;48.418;10.074;2022-10-31T10:52:47;8.40;;;7.60;;
1174;SDS011;576;48.418;10.074;2022-10-31T10:55:24;7.10;;;6.50;;
1174;SDS011;576;48.418;10.074;2022-10-31T10:58:00;7.63;;;6.93;;
1174;SDS011;576;48.418;10.074;2022-10-31T11:00:31;10.00;;;5.80;;
1174;SDS011;576;48.418;10.074;2022-10-31T11:03:02;10.20;;;5.97;;
1174;SDS011;576;48.418;10.074;2022-10-31T11:05:33;8.93;;;6.10;;
1174;SDS011;576;48.418;10.074;2022-10-31T11:08:05;6.67;;;6.10;;
1174;SDS011;576;48.418;10.074;2022-10-31T11:10:35;5.87;;;5.30;;
1174;SDS011;576;48.418;10.074;2022-10-31T11:13:05;6.07;;;5.20;;
1174;SDS011;576;48.418;10.074;2022-10-31T11:15:50;7.47;;;5.00;;
1174;SDS011;576;48.418;10.074;2022-10-31T11:18:23;5.90;;;5.37;;
1174;SDS011;576;48.418;10.074;2022-10-31T11:20:54;6.13;;;5.00;;
1174;SDS011;576;48.418;10.074;2022-10-31T11:23:23;8.83;;;5.50;;
1174;SDS011;576;48.418;10.074;2022-10-31T11:25:55;8.50;;;5.60;;
1174;SDS011;576;48.418;10.074;2022-10-31T11:28:26;5.40;;;4.93;;
1174;SDS011;576;48.418;10.074;2022-10-31T11:30:57;5.70;;;5.20;;
1174;SDS011;576;48.418;10.074;2022-10-31T11:33:27;5.80;;;5.30;;
1174;SDS011;576;48.418;10.074;2022-10-31T11:35:59;5.40;;;5.00;;
1174;SDS011;576;48.418;10.074;2022-10-31T11:38:32;6.27;;;5.77;;
1174;SDS011;576;48.418;10.074;2022-10-31T11:41:08;10.10;;;5.83;;
1174;SDS011;576;48.418;10.074;2022-10-31T11:43:39;5.67;;;5.20;;
1174;SDS011;576;48.418;10.074;2022-10-31T11:46:17;5.27;;;4.87;;
1174;SDS011;576;48.418;10.074;2022-10-31T11:48:49;7.77;;;4.83;;
1174;SDS011;576;48.418;10.074;2022-10-31T11:51:20;5.10;;;4.70;;
1174;SDS011;576;48.418;10.074;2022-10-31T11:53:50;4.60;;;4.30;;
1174;SDS011;576;48.418;10.074;2022-10-31T11:56:36;6.93;;;6.33;;
1174;SDS011;576;48.418;10.074;2022-10-31T11:59:21;5.80;;;5.03;;
1174;SDS011;576;48.418;10.074;2022-10-31T12:01:53;14.47;;;12.50;;
1174;SDS011;576;48.418;10.074;2022-10-31T12:04:24;14.43;;;13.13;;
1174;SDS011;576;48.418;10.074;2022-10-31T12:07:06;15.33;;;13.93;;
1174;SDS011;576;48.418;10.074;2022-10-31T12:09:34;15.03;;;12.90;;
1174;SDS011;576;48.418;10.074;2022-10-31T12:12:08;15.87;;;13.50;;
1174;SDS011;576;48.418;10.074;2022-10-31T12:14:49;12.23;;;11.00;;
1174;SDS011;576;48.418;10.074;2022-10-31T12:17:26;14.40;;;11.80;;
1174;SDS011;576;48.418;10.074;2022-10-31T12:20:02;14.70;;;9.93;;
1174;SDS011;576;48.418;10.074;2022-10-31T12:22:45;14.73;;;9.80;;
1174;SDS011;576;48.418;10.074;2022-10-31T12:25:25;10.00;;;9.00;;
1174;SDS011;576;48.418;10.074;2022-10-31T12:31:09;11.10;;;10.07;;
1174;SDS011;576;48.418;10.074;2022-10-31T12:33:48;12.20;;;10.80;;
1174;SDS011;576;48.418;10.074;2022-10-31T12:36:29;14.13;;;12.83;;
1174;SDS011;576;48.418;10.074;2022-10-31T12:39:21;14.50;;;13.00;;
1174;SDS011;576;48.418;10.074;2022-10-31T12:41:52;14.50;;;12.37;;
1174;SDS011;576;48.418;10.074;2022-10-31T12:44:38;18.37;;;13.83;;
1174;SDS011;576;48.418;10.074;2022-10-31T12:47:28;15.80;;;13.40;;
1174;SDS011;576;48.418;10.074;2022-10-31T12:50:18;14.50;;;12.00;;
1174;SDS011;576;48.418;10.074;2022-10-31T12:52:57;16.00;;;13.57;;
1174;SDS011;576;48.418;10.074;2022-10-31T12:55:37;16.63;;;12.73;;
1174;SDS011;576;48.418;10.074;2022-10-31T13:01:01;17.07;;;13.60;;
1174;SDS011;576;48.418;10.074;2022-10-31T13:03:38;13.40;;;11.57;;
1174;SDS011;576;48.418;10.074;2022-10-31T13:06:13;11.97;;;10.47;;
1174;SDS011;576;48.418;10.074;2022-10-31T13:08:57;6.93;;;6.10;;
1174;SDS011;576;48.418;10.074;2022-10-31T13:11:29;16.60;;;8.47;;
1174;SDS011;576;48.418;10.074;2022-10-31T13:14:02;13.03;;;11.73;;
1174;SDS011;576;48.418;10.074;2022-10-31T13:16:36;12.67;;;9.63;;
1174;SDS011;576;48.418;10.074;2022-10-31T13:19:10;13.03;;;10.80;;
1174;SDS011;576;48.418;10.074;2022-10-31T13:21:47;12.00;;;8.37;;
1174;SDS011;576;48.418;10.074;2022-10-31T13:24:23;7.80;;;6.47;;
1174;SDS011;576;48.418;10.074;2022-10-31T13:26:58;9.07;;;6.87;;
1174;SDS011;576;48.418;10.074;2022-10-31T13:29:30;13.13;;;11.73;;
1174;SDS011;576;48.418;10.074;2022-10-31T13:32:04;17.90;;;12.67;;
1174;SDS011;576;48.418;10.074;2022-10-31T13:34:34;8.05;;;6.65;;
1174;SDS011;576;48.418;10.074;2022-10-31T13:37:09;10.43;;;8.20;;
1174;SDS011;576;48.418;10.074;2022-10-31T13:39:55;9.43;;;6.97;;
1174;SDS011;576;48.418;10.074;2022-10-31T13:42:37;19.90;;;13.93;;
1174;SDS011;576;48.418;10.074;2022-10-31T13:45:13;12.73;;;6.07;;
1174;SDS011;576;48.418;10.074;2022-10-31T13:47:54;8.93;;;8.03;;
1174;SDS011;576;48.418;10.074;2022-10-31T13:50:24;8.40;;;5.90;;
1174;SDS011;576;48.418;10.074;2022-10-31T13:55:42;13.13;;;7.40;;
1174;SDS011;576;48.418;10.074;2022-10-31T13:58:20;12.80;;;7.07;;
1174;SDS011;576;48.418;10.074;2022-10-31T14:00:57;7.03;;;5.60;;
1174;SDS011;576;48.418;10.074;2022-10-31T14:03:43;14.67;;;6.27;;
1174;SDS011;576;48.418;10.074;2022-10-31T14:06:34;8.90;;;5.60;;
1174;SDS011;576;48.418;10.074;2022-10-31T14:09:06;8.13;;;5.70;;
1174;SDS011;576;48.418;10.074;2022-10-31T14:11:47;6.27;;;4.90;;
1174;SDS011;576;48.418;10.074;2022-10-31T14:14:17;10.77;;;5.23;;
1174;SDS011;576;48.418;10.074;2022-10-31T14:16:52;5.80;;;5.30;;
1174;SDS011;576;48.418;10.074;2022-10-31T14:19:24;10.73;;;5.50;;
1174;SDS011;576;48.418;10.074;2022-10-31T14:21:53;6.60;;;5.43;;
1174;SDS011;576;48.418;10.074;2022-10-31T14:24:32;9.80;;;5.30;;
1174;SDS011;576;48.418;10.074;2022-10-31T14:27:03;6.50;;;5.30;;
1174;SDS011;576;48.418;10.074;2022-10-31T14:29:53;5.10;;;4.50;;
1174;SDS011;576;48.418;10.074;2022-10-31T14:32:22;7.73;;;4.50;;
1174;SDS011;576;48.418;10.074;2022-10-31T14:34:53;4.67;;;4.27;;
1174;SDS011;576;48.418;10.074;2022-10-31T14:37:31;4.97;;;4.50;;
1174;SDS011;576;48.418;10.074;2022-10-31T14:40:17;5.23;;;4.80;;
1174;SDS011;576;48.418;10.074;2022-10-31T14:42:55;8.83;;;6.43;;
1174;SDS011;576;48.418;10.074;2022-10-31T14:45:46;4.63;;;4.23;;
1174;SDS011;576;48.418;10.074;2022-10-31T14:51:47;5.97;;;4.60;;
1174;SDS011;576;48.418;10.074;2022-10-31T14:54:18;4.70;;;4.00;;
1174;SDS011;576;48.418;10.074;2022-10-31T14:56:52;6.40;;;4.93;;
1174;SDS011;576;48.418;10.074;2022-10-31T14:59:27;5.90;;;5.17;;
1174;SDS011;576;48.418;10.074;2022-10-31T15:01:59;5.70;;;3.90;;
1174;SDS011;576;48.418;10.074;2022-10-31T15:04:30;5.20;;;4.50;;
1174;SDS011;576;48.418;10.074;2022-10-31T15:07:03;6.13;;;4.20;;
1174;SDS011;576;48.418;10.074;2022-10-31T15:09:34;4.70;;;4.20;;
1174;SDS011;576;48.418;10.074;2022-10-31T15:12:21;4.33;;;4.03;;
1174;SDS011;576;48.418;10.074;2022-10-31T15:14:52;5.83;;;4.50;;
1174;SDS011;576;48.418;10.074;2022-10-31T15:17:21;6.20;;;3.70;;
1174;SDS011;576;48.418;10.074;2022-10-31T15:19:50;6.63;;;4.40;;
1174;SDS011;576;48.418;10.074;2022-10-31T15:22:22;5.60;;;5.20;;
1174;SDS011;576;48.418;10.074;2022-10-31T15:24:53;6.33;;;4.57;;
1174;SDS011;576;48.418;10.074;2022-10-31T15:27:23;4.30;;;3.53;;
1174;SDS011;576;48.418;10.074;2022-10-31T15:29:52;4.97;;;4.20;;
1174;SDS011;576;48.418;10.074;2022-10-31T15:32:22;5.50;;;4.00;;
1174;SDS011;576;48.418;10.074;2022-10-31T15:34:51;3.80;;;3.60;;
1174;SDS011;576;48.418;10.074;2022-10-31T15:37:24;6.97;;;4.20;;
1174;SDS011;576;48.418;10.074;2022-10-31T15:39:54;4.30;;;4.00;;
1174;SDS011;576;48.418;10.074;2022-10-31T15:42:23;6.57;;;4.47;;
1174;SDS011;576;48.418;10.074;2022-10-31T15:44:57;4.53;;;4.13;;
1174;SDS011;576;48.418;10.074;2022-10-31T15:47:29;4.57;;;4.17;;
1174;SDS011;576;48.418;10.074;2022-10-31T15:49:58;4.83;;;4.43;;
1174;SDS011;576;48.418;10.074;2022-10-31T15:52:30;4.10;;;3.80;;
1174;SDS011;576;48.418;10.074;2022-10-31T15:55:03;5.20;;;4.70;;
1174;SDS011;576;48.418;10.074;2022-10-31T15:57:32;4.73;;;3.67;;
1174;SDS011;576;48.418;10.074;2022-10-31T16:00:01;4.30;;;3.90;;
1174;SDS011;576;48.418;10.074;2022-10-31T16:02:30;7.73;;;4.63;;
1174;SDS011;576;48.418;10.074;2022-10-31T16:04:59;5.03;;;4.47;;
1174;SDS011;576;48.418;10.074;2022-10-31T16:07:30;6.37;;;4.47;;
1174;SDS011;576;48.418;10.074;2022-10-31T16:09:59;4.50;;;3.93;;
1174;SDS011;576;48.418;10.074;2022-10-31T16:12:29;5.40;;;4.90;;
1174;SDS011;576;48.418;10.074;2022-10-31T16:15:01;6.27;;;4.50;;